Latest Weather Observations for Cape Sorell

IDT60801

Issued at 7:05 pm EST Saturday 26 July 2014 (issued every 30 minutes, with the page automatically refreshed every 10 minutes)

About weather observations | Map of weather stations | Latest weather observations for TAS | Other Formats
Station Details ID: 097000 Name: CAPE SORELL Lat: -42.20 Lon: 145.17 Height: 19.3 m
Data from the previous 72 hours. | See also: Recent months at Cape Sorell
Date/Time
EST
Temp
°C
App
Temp
°C
Dew
Point
Rel
Hum
%
Delta-T
°C
Wind Press
QNH
hPa
Press
MSL
hPa
Rain
since 9 am
mm
Dir
 
Spd
km/h
Gust
km/h
Spd
kts
Gust
kts
26/07:00pm 11.8 10.9 10.5 92 0.7 W 6 7 3 4 1021.5 1021.5 0.0
26/06:30pm 11.8 10.6 10.4 91 0.7 WNW 7 7 4 4 1021.2 - 0.0
26/06:00pm 12.2 11.7 10.6 90 0.8 WNW 4 4 2 2 1020.8 1020.8 0.0
26/05:30pm 12.4 11.3 10.5 88 1.0 WNW 7 9 4 5 1020.7 - 0.0
26/05:00pm 12.9 10.2 10.4 85 1.3 WNW 15 17 8 9 1020.8 1020.8 0.0
26/04:30pm 13.5 11.6 10.5 82 1.6 NW 11 15 6 8 1020.5 - 0.0
26/04:00pm 13.9 12.1 10.7 81 1.7 NW 11 17 6 9 1020.3 1020.3 0.0
26/03:30pm 13.8 12.4 9.6 76 2.2 NW 7 9 4 5 1020.0 - 0.0
26/03:00pm 14.8 13.6 10.2 74 2.4 NNW 7 9 4 5 1019.8 1019.8 0.0
26/02:30pm 15.3 14.2 10.1 71 2.7 NNW 6 7 3 4 1019.7 - 0.0
26/02:00pm 14.6 13.4 9.6 72 2.6 N 6 7 3 4 1019.6 1019.6 0.0
26/01:30pm 14.1 12.9 9.5 74 2.4 N 6 7 3 4 1019.6 - 0.0
26/01:00pm 13.9 12.4 9.1 73 2.4 NNE 7 9 4 5 1019.8 1019.8 0.0
26/12:30pm 13.4 11.7 8.3 71 2.5 NNE 7 9 4 5 1019.9 - 0.0
26/12:00pm 14.5 12.3 8.0 65 3.2 NE 9 11 5 6 1020.1 1020.1 0.0
26/11:30am 14.2 12.5 8.4 68 2.9 NE 7 9 4 5 1020.4 - 0.0
26/11:00am 13.7 12.0 8.3 70 2.7 ENE 7 9 4 5 1020.7 1020.7 0.0
26/10:30am 12.9 10.9 8.6 75 2.1 ENE 9 13 5 7 1020.6 - 0.0
26/10:00am 12.2 10.3 9.2 82 1.5 ENE 9 11 5 6 1020.5 1020.5 0.0
26/09:30am 10.6 7.8 8.5 87 1.0 E 13 17 7 9 1020.4 - 0.0
26/09:00am 9.6 6.3 8.0 90 0.8 E 15 20 8 11 1020.2 1020.2 0.2
26/08:30am 8.9 4.7 7.4 90 0.7 E 19 22 10 12 1019.9 - 0.2
26/08:00am 8.9 5.4 7.4 90 0.7 E 15 17 8 9 1019.6 1019.6 0.2
26/07:30am 8.7 5.2 7.2 90 0.7 E 15 17 8 9 1019.5 - 0.2
26/07:00am 8.5 4.2 7.1 91 0.7 E 19 22 10 12 1019.1 1019.1 0.2
26/06:30am 8.3 3.9 6.6 89 0.8 E 19 20 10 11 1018.7 - 0.2
26/06:00am 9.3 6.3 7.7 90 0.8 E 13 17 7 9 1018.6 1018.6 0.2
26/05:30am 8.9 4.5 7.5 91 0.7 E 20 24 11 13 1018.5 - 0.2
26/05:00am 9.3 6.0 7.9 91 0.7 E 15 17 8 9 1018.3 1018.3 0.2
26/04:30am 9.3 6.0 7.9 91 0.7 E 15 19 8 10 1018.0 - 0.2
26/04:00am 9.2 5.5 8.0 92 0.6 E 17 19 9 10 1017.8 1017.8 0.2
26/03:30am 9.1 5.8 8.0 93 0.5 E 15 17 8 9 1017.9 - 0.2
26/03:00am 8.6 4.8 7.4 92 0.6 E 17 20 9 11 1017.9 1017.9 0.2
26/02:30am 8.8 4.9 7.3 90 0.7 E 17 19 9 10 1018.0 - 0.2
26/02:00am 9.0 5.1 7.3 89 0.8 E 17 19 9 10 1017.8 1017.8 0.2
26/01:30am 9.7 7.2 8.0 89 0.8 E 11 13 6 7 1017.5 - 0.2
26/01:00am 9.5 6.5 7.8 89 0.8 E 13 15 7 8 1017.4 1017.4 0.2
26/12:30am 9.3 6.2 7.3 87 0.9 ENE 13 15 7 8 1017.5 - 0.2
26/12:00am 9.9 6.8 7.2 83 1.3 E 13 15 7 8 1017.5 1017.5 0.2
 
Date/Time
EST
Temp
°C
App
Temp
°C
Dew
Point
Rel
Hum
%
Delta-T
°C
Wind Press
QNH
hPa
Press
MSL
hPa
Rain
since 9 am
mm
Dir
 
Spd
km/h
Gust
km/h
Spd
kts
Gust
kts
25/11:30pm 11.0 8.9 8.1 82 1.4 E 9 11 5 6 1017.5 - 0.2
25/11:00pm 11.2 8.7 8.2 82 1.5 E 11 11 6 6 1017.5 1017.5 0.2
25/10:30pm 11.1 7.9 8.5 84 1.3 E 15 17 8 9 1017.4 - 0.2
25/10:00pm 10.4 6.7 7.8 84 1.3 E 17 19 9 10 1017.2 1017.2 0.2
25/09:30pm 11.0 7.3 8.1 82 1.4 E 17 20 9 11 1017.2 - 0.2
25/09:00pm 11.3 7.7 8.5 83 1.4 ESE 17 19 9 10 1017.3 1017.3 0.2
25/08:30pm 11.2 7.6 8.4 83 1.4 ESE 17 22 9 12 1017.1 - 0.2
25/08:00pm 11.5 8.2 8.2 80 1.6 SE 15 20 8 11 1017.2 1017.2 0.2
25/07:30pm 12.0 8.3 8.1 77 1.9 ESE 17 20 9 11 1017.0 - 0.2
25/07:00pm 12.3 8.3 8.2 76 2.0 ESE 19 20 10 11 1016.5 1016.5 0.2
25/06:30pm 11.8 8.2 8.5 80 1.6 ESE 17 20 9 11 1016.3 - 0.2
25/06:00pm 11.6 7.7 8.5 81 1.5 ESE 19 22 10 12 1015.8 1015.8 0.2
25/05:30pm 11.3 7.6 8.0 80 1.6 ESE 17 20 9 11 1015.8 - 0.2
25/05:00pm 11.7 7.6 8.0 78 1.8 ESE 19 22 10 12 1015.4 1015.5 0.2
25/04:30pm 12.1 8.5 8.2 77 1.9 ESE 17 22 9 12 1015.4 - 0.2
25/04:00pm 12.2 8.6 8.3 77 1.9 ESE 17 20 9 11 1015.3 1015.4 0.2
25/03:30pm 12.6 9.4 8.3 75 2.1 ESE 15 20 8 11 1014.9 - 0.2
25/03:00pm 12.2 8.9 8.1 76 2.0 ESE 15 19 8 10 1014.8 1014.9 0.2
25/02:30pm 12.1 8.8 8.0 76 2.0 ESE 15 19 8 10 1014.7 - 0.2
25/02:00pm 12.8 9.8 7.7 71 2.5 ESE 13 20 7 11 1014.8 1014.9 0.0
25/01:30pm 12.5 8.9 8.2 75 2.1 ESE 17 24 9 13 1014.7 - 0.0
25/01:00pm 11.5 7.9 8.2 80 1.6 ESE 17 20 9 11 1014.8 1014.9 0.0
25/12:30pm 11.1 6.8 6.8 75 2.0 ESE 19 26 10 14 1015.1 - 0.0
25/12:00pm 11.3 7.0 6.8 74 2.1 ESE 19 24 10 13 1015.2 1015.3 0.0
25/11:30am 11.3 7.4 7.2 76 2.0 ESE 17 24 9 13 1015.6 - 0.0
25/11:00am 10.5 6.0 6.8 78 1.7 ESE 20 26 11 14 1015.8 1015.8 0.0
25/10:30am 10.6 6.7 7.1 79 1.7 ESE 17 20 9 11 1016.0 - 0.0
25/10:00am 10.1 6.6 7.0 81 1.5 ESE 15 19 8 10 1016.0 1016.0 0.0
25/09:30am 10.1 6.4 6.4 78 1.7 E 15 17 8 9 1016.1 - 0.0
25/09:00am 10.6 7.3 6.2 74 2.0 E 13 17 7 9 1016.0 1016.0 0.0
25/08:30am 10.5 6.8 6.3 75 2.0 E 15 19 8 10 1015.5 - 0.0
25/08:00am 10.1 5.6 6.1 76 1.9 E 19 24 10 13 1015.2 1015.3 0.0
25/07:30am 9.9 5.3 5.7 75 1.9 E 19 22 10 12 1015.0 - 0.0
25/07:00am 9.8 5.0 5.6 75 1.9 E 20 26 11 14 1014.7 1014.8 0.0
25/06:30am 10.0 4.9 5.8 75 1.9 E 22 26 12 14 1014.4 - 0.0
25/06:00am 9.8 4.7 5.8 76 1.8 E 22 28 12 15 1014.1 1014.2 0.0
25/05:30am 10.1 5.0 5.9 75 1.9 E 22 26 12 14 1014.0 - 0.0
25/05:00am 10.3 5.5 5.5 72 2.2 E 20 24 11 13 1014.1 1014.2 0.0
25/04:30am 10.2 5.1 5.8 74 2.0 E 22 26 12 14 1013.8 - 0.0
25/04:00am 9.8 5.2 5.8 76 1.8 E 19 24 10 13 1014.1 1014.2 0.0
25/03:30am 9.7 4.5 5.3 74 2.0 E 22 26 12 14 1014.1 - 0.0
25/03:00am 9.5 4.3 5.5 76 1.8 E 22 26 12 14 1014.2 1014.3 0.0
25/02:30am 9.2 3.9 5.2 76 1.8 E 22 26 12 14 1014.4 - 0.0
25/02:00am 9.5 4.7 5.5 76 1.8 E 20 24 11 13 1014.5 1014.6 0.0
25/01:30am 9.3 4.5 5.5 77 1.7 E 20 26 11 14 1014.6 - 0.0
25/01:00am 9.3 4.1 5.5 77 1.7 E 22 28 12 15 1014.6 1014.7 0.0
25/12:30am 9.4 4.3 5.8 78 1.6 E 22 28 12 15 1015.0 - 0.0
25/12:00am 9.2 4.1 5.9 80 1.5 ESE 22 32 12 17 1015.3 1015.4 0.0
 
Date/Time
EST
Temp
°C
App
Temp
°C
Dew
Point
Rel
Hum
%
Delta-T
°C
Wind Press
QNH
hPa
Press
MSL
hPa
Rain
since 9 am
mm
Dir
 
Spd
km/h
Gust
km/h
Spd
kts
Gust
kts
24/11:30pm 9.2 3.7 5.8 79 1.6 ESE 24 30 13 16 1015.6 - 0.0
24/11:00pm 9.1 3.5 5.5 78 1.6 ESE 24 30 13 16 1015.6 1015.7 0.0
24/10:30pm 9.1 3.6 5.7 79 1.5 ESE 24 28 13 15 1015.8 - 0.0
24/10:00pm 9.2 4.1 5.8 79 1.5 ESE 22 30 12 16 1015.9 1015.9 0.0
24/09:30pm 9.0 4.2 5.6 79 1.5 ESE 20 26 11 14 1015.9 - 0.0
24/09:00pm 9.2 4.6 5.4 77 1.7 E 19 24 10 13 1015.9 1015.9 0.0
24/08:30pm 9.7 5.1 5.7 76 1.8 E 19 22 10 12 1015.9 - 0.0
24/08:00pm 9.4 4.7 5.2 75 1.9 E 19 22 10 12 1015.8 1015.8 0.0
24/07:30pm 9.5 4.8 5.3 75 1.9 E 19 22 10 12 1015.8 - 0.0
24/07:00pm 9.5 4.8 5.3 75 1.9 E 19 22 10 12 1015.8 1015.8 0.0
24/06:30pm 9.8 5.0 5.6 75 1.9 E 20 24 11 13 1015.6 - 0.0
24/06:00pm 10.1 5.4 6.1 76 1.8 ESE 20 24 11 13 1015.5 1015.6 0.0
24/05:30pm 10.1 5.4 5.9 75 1.9 ESE 20 28 11 15 1015.4 - 0.0
24/05:00pm 10.4 5.3 5.8 73 2.1 ESE 22 26 12 14 1015.4 1015.5 0.0
24/04:30pm 10.7 6.0 5.9 72 2.2 ESE 20 26 11 14 1015.4 - 0.0
24/04:00pm 11.4 6.9 6.3 71 2.4 ESE 19 24 10 13 1015.4 1015.5 0.0
24/03:30pm 11.4 6.9 6.3 71 2.4 ESE 19 24 10 13 1015.4 - 0.0
24/03:00pm 11.7 7.3 6.6 71 2.4 ESE 19 24 10 13 1015.4 1015.5 0.0
24/02:30pm 11.0 6.6 6.4 73 2.2 ESE 19 22 10 12 1015.5 - 0.0
24/02:00pm 11.0 6.6 6.4 73 2.2 ESE 19 24 10 13 1015.5 1015.6 0.0
24/01:30pm 10.1 5.4 5.9 75 1.9 ESE 20 26 11 14 1016.0 - 0.0
24/01:00pm 9.8 5.1 6.2 78 1.7 ESE 20 26 11 14 1016.4 1016.4 0.0
24/12:30pm 9.7 5.2 5.9 77 1.7 E 19 26 10 14 1016.8 - 0.0
24/12:00pm 9.6 5.1 6.1 79 1.6 E 19 24 10 13 1017.2 1017.2 0.0
24/11:30am 8.4 3.6 5.7 83 1.2 E 20 26 11 14 1017.7 - 0.0
24/11:00am 8.0 3.2 5.8 86 1.0 E 20 26 11 14 1018.0 1018.0 0.0
24/10:30am 7.7 3.2 6.0 89 0.8 E 19 26 10 14 1018.2 - 0.0
24/10:00am 7.8 4.5 6.3 90 0.7 E 13 17 7 9 1018.5 1018.5 0.0
24/09:30am 7.6 3.2 6.7 94 0.4 ESE 19 24 10 13 1018.7 - 0.0
24/09:00am 6.8 2.3 6.2 96 0.3 E 19 24 10 13 1018.8 1018.8 0.2
24/08:30am 5.8 0.9 5.2 96 0.3 E 20 24 11 13 1018.7 - 0.2
24/08:00am 5.6 0.7 5.0 96 0.3 E 20 26 11 14 1018.4 1018.4 0.2
24/07:30am 5.7 1.0 5.0 95 0.3 E 19 22 10 12 1018.3 - 0.2
24/07:00am 5.7 1.0 5.0 95 0.3 E 19 20 10 11 1018.3 1018.3 0.2
24/06:30am 5.6 0.8 4.9 95 0.3 E 19 22 10 12 1018.3 - 0.2
24/06:00am 5.2 1.1 4.5 95 0.3 ENE 15 19 8 10 1018.2 1018.2 0.2
24/05:30am 5.6 1.2 4.9 95 0.3 ENE 17 20 9 11 1018.1 - 0.2
24/05:00am 5.6 0.9 5.0 96 0.3 ENE 19 22 10 12 1018.0 1018.0 0.2
24/04:30am 5.9 1.7 5.5 97 0.2 ENE 17 20 9 11 1018.2 - 0.2
24/04:00am 6.1 2.7 5.8 98 0.1 ENE 13 17 7 9 1018.4 1018.4 0.2
24/03:30am 5.7 2.2 5.4 98 0.1 E 13 15 7 8 1018.4 - 0.2
24/03:00am 5.8 2.7 5.4 97 0.2 E 11 15 6 8 1018.5 1018.5 0.2
24/02:30am 6.1 3.0 5.7 97 0.2 ENE 11 15 6 8 1018.6 - 0.2
24/02:00am 6.2 2.8 5.8 97 0.2 E 13 15 7 8 1018.6 1018.6 0.2
24/01:30am 6.5 2.7 5.9 96 0.3 ENE 15 19 8 10 1018.6 - 0.2
24/01:00am 6.4 2.6 5.7 95 0.3 ENE 15 19 8 10 1018.8 1018.8 0.2
24/12:30am 6.6 2.8 5.7 94 0.4 ENE 15 17 8 9 1019.0 - 0.2
24/12:00am 6.6 2.8 5.7 94 0.4 E 15 19 8 10 1019.2 1019.2 0.2
 
Date/Time
EST
Temp
°C
App
Temp
°C
Dew
Point
Rel
Hum
%
Delta-T
°C
Wind Press
QNH
hPa
Press
MSL
hPa
Rain
since 9 am
mm
Dir
 
Spd
km/h
Gust
km/h
Spd
kts
Gust
kts
23/11:30pm 7.0 3.3 6.1 94 0.4 ENE 15 17 8 9 1019.5 - 0.2
23/11:00pm 6.9 3.1 5.8 93 0.5 ENE 15 17 8 9 1019.7 1019.7 0.2
23/10:30pm 7.2 3.5 6.1 93 0.5 ENE 15 17 8 9 1019.9 - 0.2
23/10:00pm 7.4 3.7 6.2 92 0.5 E 15 17 8 9 1020.1 1020.1 0.2
23/09:30pm 7.7 4.4 6.3 91 0.6 ENE 13 15 7 8 1020.3 - 0.2
23/09:00pm 8.1 5.2 6.6 90 0.7 ENE 11 13 6 7 1020.5 1020.5 0.2
23/08:30pm 7.9 4.5 5.7 86 1.0 E 13 15 7 8 1020.5 - 0.2
23/08:00pm 8.1 6.2 4.7 79 1.5 S 4 6 2 3 1020.5 1020.5 0.2
23/07:30pm 9.2 7.9 6.1 81 1.4 SW 2 6 1 3 1020.5 - 0.2

Other Formats:

Comma delimited format used in spreadsheet applications
http://www.bom.gov.au/fwo/IDT60801/IDT60801.94974.axf

JavaScript Object Notation format (JSON) in row-major order
http://www.bom.gov.au/fwo/IDT60801/IDT60801.94974.json